Time;durP1;ratioP1;P1;durP2;ratioP2;P2;SDS_P1;SDS_P2;PMS_P1;PMS_P2;Temp;Humidity;BMP_temperature;BMP_pressure;BME280_temperature;BME280_humidity;BME280_pressure;Samples;Min_cycle;Max_cycle;Signal;HPM_P1;HPM_P2
2022/10/27 00:00:03;;;;;;;;;;;;;;;;;;5133003;27;19907;-60
2022/10/27 00:02:28;;;;;;;;;;;;;;;;;;5132880;27;19908;-59
2022/10/27 00:04:53;;;;;;;;;;;;;;;;;;5133312;27;19907;-59
2022/10/27 00:07:18;;;;;;;;;;;;;;;;;;5132104;27;19915;-59
2022/10/27 00:09:44;;;;;;;;;;;;;;;;;;5133085;27;20403;-59
2022/10/27 00:12:09;;;;;;;;;;;;;;;;;;5132682;27;19908;-60
2022/10/27 00:14:34;;;;;;;;;;;;;;;;;;5132944;27;20006;-60
2022/10/27 00:16:59;;;;;;;;;;;;;;;;;;5132409;27;19968;-59
2022/10/27 00:19:24;;;;;;;;;;;;;;;;;;5132706;27;20389;-59
2022/10/27 00:21:50;;;;;;;;;;;;;;;;;;5132623;27;19908;-59
2022/10/27 00:24:15;;;;;;;;;;;;;;;;;;5132798;27;19908;-59
2022/10/27 00:26:40;;;;;;;;;;;;;;;;;;5130735;27;19915;-60
2022/10/27 00:29:05;;;;;;;;;;;;;;;;;;5132575;27;19907;-59
2022/10/27 00:31:30;;;;;;;;;;;;;;;;;;5131986;27;19923;-60
2022/10/27 00:33:55;;;;;;;;;;;;;;;;;;5132545;27;20392;-59
2022/10/27 00:36:21;;;;;;;;;;;;;;;;;;5132420;27;19911;-59
2022/10/27 00:38:46;;;;;;;;;;;;;;;;;;5132664;27;19912;-59
2022/10/27 00:41:11;;;;;;;;;;;;;;;;;;5132151;27;19907;-59
2022/10/27 00:43:36;;;;;;;;;;;;;;;;;;5132666;27;19907;-59
2022/10/27 00:46:01;;;;;;;;;;;;;;;;;;5132172;27;19953;-59
2022/10/27 00:48:26;;;;;;;;;;;;;;;;;;5131803;28;19914;-59
2022/10/27 00:50:51;;;;;;;;;;;;;;;;;;5132620;28;19938;-60
2022/10/27 00:53:16;;;;;;;;;;;;;;;;;;5132371;28;20285;-59
2022/10/27 00:55:41;;;;;;;;;;;;;;;;;;5132575;28;19911;-59
2022/10/27 00:58:06;;;;;;;;;;;;;;;;;;5132168;28;19908;-59
2022/10/27 01:00:32;;;;;;;;;;;;;;;;;;5132388;28;19908;-59
2022/10/27 01:02:57;;;;;;;;;;;;;;;;;;5132411;28;19972;-59
2022/10/27 01:05:22;;;;;;;;;;;;;;;;;;5132543;28;19914;-59
2022/10/27 01:07:47;;;;;;;;;;;;;;;;;;5132301;28;19964;-59
2022/10/27 01:10:12;;;;;;;;;;;;;;;;;;5132026;28;19931;-59
2022/10/27 01:12:37;;;;;;;;;;;;;;;;;;5132183;28;19915;-59
2022/10/27 01:15:02;;;;;;;;;;;;;;;;;;5132079;28;19953;-60
2022/10/27 01:17:27;;;;;;;;;;;;;;;;;;5132003;27;19918;-60
2022/10/27 01:19:52;;;;;;;;;;;;;;;;;;5136564;27;20021;-60
2022/10/27 01:22:17;;;;;;;;;;;;;;;;;;5135894;27;19907;-60
2022/10/27 01:24:42;;;;;;;;;;;;;;;;;;5136458;27;20376;-60
2022/10/27 01:27:07;;;;;;;;;;;;;;;;;;5135850;27;19911;-61
2022/10/27 01:29:33;;;;;;;;;;;;;;;;;;5136024;27;20011;-60
2022/10/27 01:31:58;;;;;;;;;;;;;;;;;;5135748;27;20435;-60
2022/10/27 01:34:23;;;;;;;;;;;;;;;;;;5135774;27;19911;-60
2022/10/27 01:36:48;;;;;;;;;;;;;;;;;;5135333;27;19968;-60
2022/10/27 01:39:13;;;;;;;;;;;;;;;;;;5132197;27;19974;-60
2022/10/27 01:41:38;;;;;;;;;;;;;;;;;;5136154;27;20374;-60
2022/10/27 01:44:03;;;;;;;;;;;;;;;;;;5135932;27;19908;-59
2022/10/27 01:46:28;;;;;;;;;;;;;;;;;;5135620;27;19996;-60
2022/10/27 01:48:53;;;;;;;;;;;;;;;;;;5135611;27;20308;-59
2022/10/27 01:51:18;;;;;;;;;;;;;;;;;;5135807;27;20002;-60
2022/10/27 01:53:43;;;;;;;;;;;;;;;;;;5135859;27;19908;-60
2022/10/27 01:56:08;;;;;;;;;;;;;;;;;;5135549;27;19908;-60
2022/10/27 01:58:33;;;;;;;;;;;;;;;;;;5135527;27;20278;-60
2022/10/27 02:00:59;;;;;;;;;;;;;;;;;;5135356;27;20350;-60
2022/10/27 02:03:24;;;;;;;;;;;;;;;;;;5135220;27;19911;-60
2022/10/27 02:05:49;;;;;;;;;;;;;;;;;;5135411;27;19935;-60
2022/10/27 02:08:14;;;;;;;;;;;;;;;;;;5135388;27;19933;-60
2022/10/27 02:10:39;;;;;;;;;;;;;;;;;;5135353;27;20009;-60
2022/10/27 02:13:04;;;;;;;;;;;;;;;;;;5134877;27;20362;-60
2022/10/27 02:15:29;;;;;;;;;;;;;;;;;;5135057;27;19907;-59
2022/10/27 02:17:54;;;;;;;;;;;;;;;;;;5135014;27;19904;-60
2022/10/27 02:20:19;;;;;;;;;;;;;;;;;;5135300;27;19911;-58
2022/10/27 02:22:44;;;;;;;;;;;;;;;;;;5134948;27;19908;-58
2022/10/27 02:25:09;;;;;;;;;;;;;;;;;;5134925;27;19915;-58
2022/10/27 02:27:35;;;;;;;;;;;;;;;;;;5134731;27;19959;-58
2022/10/27 02:30:02;;;;;;;;;;;;;;;;;;5134052;27;19908;-58
2022/10/27 02:32:28;;;;;;;;;;;;;;;;;;5134460;27;19939;-58
2022/10/27 02:34:53;;;;;;;;;;;;;;;;;;5134930;27;19960;-58
2022/10/27 02:37:19;;;;;;;;;;;;;;;;;;5133921;27;20036;-59
2022/10/27 02:39:44;;;;;;;;;;;;;;;;;;5133227;27;20327;-59
2022/10/27 02:42:09;;;;;;;;;;;;;;;;;;5134564;27;19945;-59
2022/10/27 02:44:34;;;;;;;;;;;;;;;;;;5135011;27;19907;-59
2022/10/27 02:46:59;;;;;;;;;;;;;;;;;;5134191;27;19934;-59
2022/10/27 02:49:24;;;;;;;;;;;;;;;;;;5134482;27;19911;-59
2022/10/27 02:51:49;;;;;;;;;;;;;;;;;;5134444;27;19915;-60
2022/10/27 02:54:14;;;;;;;;;;;;;;;;;;5134488;27;19960;-59
2022/10/27 02:56:39;;;;;;;;;;;;;;;;;;5134456;27;19907;-59
2022/10/27 02:59:04;;;;;;;;;;;;;;;;;;5134229;27;20358;-59
2022/10/27 03:01:30;;;;;;;;;;;;;;;;;;5134088;27;19957;-59
2022/10/27 03:03:55;;;;;;;;;;;;;;;;;;5134415;27;19914;-59
2022/10/27 03:06:20;;;;;;;;;;;;;;;;;;5130287;27;20417;-59
2022/10/27 03:08:45;;;;;;;;;;;;;;;;;;5134116;27;19947;-59
2022/10/27 03:11:10;;;;;;;;;;;;;;;;;;5133964;27;19914;-59
2022/10/27 03:13:35;;;;;;;;;;;;;;;;;;5133975;27;19908;-59
2022/10/27 03:16:00;;;;;;;;;;;;;;;;;;5133702;27;20405;-59
2022/10/27 03:18:25;;;;;;;;;;;;;;;;;;5131310;27;19911;-59
2022/10/27 03:20:50;;;;;;;;;;;;;;;;;;5134004;27;19919;-59
2022/10/27 03:23:15;;;;;;;;;;;;;;;;;;5133835;27;19908;-59
2022/10/27 03:25:43;;;;;;;;;;;;;;;;;;5133967;27;19911;-59
2022/10/27 03:28:08;;;;;;;;;;;;;;;;;;5133497;27;19916;-59
2022/10/27 03:30:33;;;;;;;;;;;;;;;;;;5133378;27;19992;-59
2022/10/27 03:33:00;;;;;;;;;;;;;;;;;;5133747;27;20451;-59
2022/10/27 03:35:25;;;;;;;;;;;;;;;;;;5133588;27;19908;-60
2022/10/27 03:37:50;;;;;;;;;;;;;;;;;;5133748;27;19914;-59
2022/10/27 03:40:15;;;;;;;;;;;;;;;;;;5133321;27;20273;-59
2022/10/27 03:42:41;;;;;;;;;;;;;;;;;;5133588;27;20070;-59
2022/10/27 03:45:06;;;;;;;;;;;;;;;;;;5133556;27;19998;-59
2022/10/27 03:47:31;;;;;;;;;;;;;;;;;;5133030;27;19919;-59
2022/10/27 03:49:56;;;;;;;;;;;;;;;;;;5131541;27;19915;-60
2022/10/27 03:52:21;;;;;;;;;;;;;;;;;;5132897;27;20031;-60
2022/10/27 03:54:46;;;;;;;;;;;;;;;;;;5133554;27;19907;-60
2022/10/27 03:57:12;;;;;;;;;;;;;;;;;;5133272;27;19908;-60
2022/10/27 03:59:37;;;;;;;;;;;;;;;;;;5133064;27;19911;-60
2022/10/27 04:02:02;;;;;;;;;;;;;;;;;;5132650;27;19907;-60
2022/10/27 04:04:27;;;;;;;;;;;;;;;;;;5133009;27;20383;-59
2022/10/27 04:06:52;;;;;;;;;;;;;;;;;;5133021;27;20013;-59
2022/10/27 04:09:17;;;;;;;;;;;;;;;;;;5132569;27;20367;-59
2022/10/27 04:11:42;;;;;;;;;;;;;;;;;;5132865;27;19935;-60
2022/10/27 04:14:07;;;;;;;;;;;;;;;;;;5132796;27;19944;-59
2022/10/27 04:16:32;;;;;;;;;;;;;;;;;;5132955;27;20388;-58
2022/10/27 04:18:57;;;;;;;;;;;;;;;;;;5132907;27;20270;-59
2022/10/27 04:21:22;;;;;;;;;;;;;;;;;;5132598;27;19908;-59
2022/10/27 04:23:48;;;;;;;;;;;;;;;;;;5132757;27;19952;-59
2022/10/27 04:26:13;;;;;;;;;;;;;;;;;;5132485;27;19908;-59
2022/10/27 04:28:38;;;;;;;;;;;;;;;;;;5132750;27;19911;-57
2022/10/27 04:31:03;;;;;;;;;;;;;;;;;;5132257;27;20025;-59
2022/10/27 04:33:28;;;;;;;;;;;;;;;;;;5132281;27;19946;-60
2022/10/27 04:35:53;;;;;;;;;;;;;;;;;;5132618;27;20080;-60
2022/10/27 04:38:18;;;;;;;;;;;;;;;;;;5131916;27;19908;-59
2022/10/27 04:40:43;;;;;;;;;;;;;;;;;;5132582;27;19907;-59
2022/10/27 04:43:08;;;;;;;;;;;;;;;;;;5132699;27;20323;-59
2022/10/27 04:45:33;;;;;;;;;;;;;;;;;;5132193;27;19980;-59
2022/10/27 04:47:58;;;;;;;;;;;;;;;;;;5132272;27;19915;-59
2022/10/27 04:50:23;;;;;;;;;;;;;;;;;;5132281;28;19908;-59
2022/10/27 04:52:48;;;;;;;;;;;;;;;;;;5134662;27;20273;-59
2022/10/27 04:55:14;;;;;;;;;;;;;;;;;;5139091;27;19907;-59
2022/10/27 04:57:39;;;;;;;;;;;;;;;;;;5139185;27;19994;-60
2022/10/27 05:00:04;;;;;;;;;;;;;;;;;;5139259;27;20305;-59
2022/10/27 05:02:29;;;;;;;;;;;;;;;;;;5138985;27;19907;-59
2022/10/27 05:04:54;;;;;;;;;;;;;;;;;;5139296;27;19960;-59
2022/10/27 05:07:19;;;;;;;;;;;;;;;;;;5138825;27;19915;-59
2022/10/27 05:09:44;;;;;;;;;;;;;;;;;;5138744;27;19957;-59
2022/10/27 05:12:09;;;;;;;;;;;;;;;;;;5139041;27;19914;-59
2022/10/27 05:14:34;;;;;;;;;;;;;;;;;;5138909;27;20395;-59
2022/10/27 05:16:59;;;;;;;;;;;;;;;;;;5138851;27;19936;-59
2022/10/27 05:19:24;;;;;;;;;;;;;;;;;;5139145;27;19908;-59
2022/10/27 05:21:49;;;;;;;;;;;;;;;;;;5138870;27;19908;-59
2022/10/27 05:24:15;;;;;;;;;;;;;;;;;;5139142;27;19915;-59
2022/10/27 05:26:40;;;;;;;;;;;;;;;;;;5138754;27;20006;-58
2022/10/27 05:29:05;;;;;;;;;;;;;;;;;;5138062;27;19953;-58
2022/10/27 05:31:30;;;;;;;;;;;;;;;;;;5138282;27;20382;-58
2022/10/27 05:33:55;;;;;;;;;;;;;;;;;;5138604;27;19934;-58
2022/10/27 05:36:20;;;;;;;;;;;;;;;;;;5138348;27;19990;-58
2022/10/27 05:38:46;;;;;;;;;;;;;;;;;;5138873;27;19908;-58
2022/10/27 05:41:11;;;;;;;;;;;;;;;;;;5138726;27;19918;-59
2022/10/27 05:43:37;;;;;;;;;;;;;;;;;;5138566;27;19907;-58
2022/10/27 05:46:04;;;;;;;;;;;;;;;;;;5137874;27;20314;-59
2022/10/27 05:48:29;;;;;;;;;;;;;;;;;;5138536;27;20010;-59
2022/10/27 05:50:55;;;;;;;;;;;;;;;;;;5138608;27;19998;-58
2022/10/27 05:53:20;;;;;;;;;;;;;;;;;;5138546;27;20357;-57
2022/10/27 05:55:45;;;;;;;;;;;;;;;;;;5138734;27;19911;-59
2022/10/27 05:58:10;;;;;;;;;;;;;;;;;;5138469;27;19915;-58
2022/10/27 06:00:35;;;;;;;;;;;;;;;;;;5137872;27;20052;-60
2022/10/27 06:03:00;;;;;;;;;;;;;;;;;;5138619;27;19912;-60
2022/10/27 06:05:25;;;;;;;;;;;;;;;;;;5134671;27;20015;-60
2022/10/27 06:07:50;;;;;;;;;;;;;;;;;;5135388;27;20374;-60
2022/10/27 06:10:15;;;;;;;;;;;;;;;;;;5135282;27;19908;-60
2022/10/27 06:12:40;;;;;;;;;;;;;;;;;;5135114;27;19915;-60
2022/10/27 06:15:05;;;;;;;;;;;;;;;;;;5135188;27;20002;-60
2022/10/27 06:17:30;;;;;;;;;;;;;;;;;;5135005;27;19915;-58
2022/10/27 06:19:55;;;;;;;;;;;;;;;;;;5134727;27;20270;-58
2022/10/27 06:22:21;;;;;;;;;;;;;;;;;;5134837;27;19964;-58
2022/10/27 06:24:46;;;;;;;;;;;;;;;;;;5135175;27;19934;-58
2022/10/27 06:27:11;;;;;;;;;;;;;;;;;;5134894;27;19916;-60
2022/10/27 06:29:36;;;;;;;;;;;;;;;;;;5134601;27;19914;-60
2022/10/27 06:32:01;;;;;;;;;;;;;;;;;;5134435;27;19931;-59
2022/10/27 06:34:26;;;;;;;;;;;;;;;;;;5134769;27;19912;-59
2022/10/27 06:36:51;;;;;;;;;;;;;;;;;;5134774;27;19907;-59
2022/10/27 06:39:16;;;;;;;;;;;;;;;;;;5134722;27;20385;-60
2022/10/27 06:41:41;;;;;;;;;;;;;;;;;;5134636;27;19956;-60
2022/10/27 06:44:06;;;;;;;;;;;;;;;;;;5134891;27;19907;-59
2022/10/27 06:46:33;;;;;;;;;;;;;;;;;;5134060;27;20255;-59
2022/10/27 06:48:58;;;;;;;;;;;;;;;;;;5134548;27;19914;-59
2022/10/27 06:51:23;;;;;;;;;;;;;;;;;;5134660;27;19908;-59
2022/10/27 06:53:48;;;;;;;;;;;;;;;;;;5134375;27;19914;-59
2022/10/27 06:56:13;;;;;;;;;;;;;;;;;;5134474;27;19926;-59
2022/10/27 06:58:39;;;;;;;;;;;;;;;;;;5133932;27;20552;-59
2022/10/27 07:01:04;;;;;;;;;;;;;;;;;;5134071;27;20010;-60
2022/10/27 07:03:30;;;;;;;;;;;;;;;;;;5134123;27;20251;-59
2022/10/27 07:05:55;;;;;;;;;;;;;;;;;;5134409;27;19907;-59
2022/10/27 07:08:20;;;;;;;;;;;;;;;;;;5133855;27;19911;-59
2022/10/27 07:10:45;;;;;;;;;;;;;;;;;;5134310;27;20411;-60
2022/10/27 07:13:10;;;;;;;;;;;;;;;;;;5134078;27;19911;-59
2022/10/27 07:15:37;;;;;;;;;;;;;;;;;;5133424;27;19915;-59
2022/10/27 07:18:02;;;;;;;;;;;;;;;;;;5133821;27;19907;-59
2022/10/27 07:20:27;;;;;;;;;;;;;;;;;;5133828;27;19962;-59
2022/10/27 07:22:52;;;;;;;;;;;;;;;;;;5134002;27;20281;-59
2022/10/27 07:25:17;;;;;;;;;;;;;;;;;;5133969;27;19954;-59
2022/10/27 07:27:42;;;;;;;;;;;;;;;;;;5133576;27;19916;-60
2022/10/27 07:30:07;;;;;;;;;;;;;;;;;;5133459;27;19956;-59
2022/10/27 07:32:32;;;;;;;;;;;;;;;;;;5133675;27;19915;-59
2022/10/27 07:34:58;;;;;;;;;;;;;;;;;;5133860;27;19991;-59
2022/10/27 07:37:23;;;;;;;;;;;;;;;;;;5133867;27;20273;-60
2022/10/27 07:39:48;;;;;;;;;;;;;;;;;;5132813;27;20357;-59
2022/10/27 07:42:14;;;;;;;;;;;;;;;;;;5133380;27;19914;-59
2022/10/27 07:44:39;;;;;;;;;;;;;;;;;;5133245;27;19907;-60
2022/10/27 07:47:04;;;;;;;;;;;;;;;;;;5133264;27;19912;-59
2022/10/27 07:49:29;;;;;;;;;;;;;;;;;;5133136;27;19930;-59
2022/10/27 07:51:54;;;;;;;;;;;;;;;;;;5133174;27;19911;-59
2022/10/27 07:54:20;;;;;;;;;;;;;;;;;;5133488;27;19908;-59
2022/10/27 07:56:45;;;;;;;;;;;;;;;;;;5133382;27;19955;-59
2022/10/27 07:59:10;;;;;;;;;;;;;;;;;;5132922;27;19950;-59
2022/10/27 08:01:35;;;;;;;;;;;;;;;;;;5132683;27;19907;-60
2022/10/27 08:04:00;;;;;;;;;;;;;;;;;;5132951;27;19994;-59
2022/10/27 08:06:25;;;;;;;;;;;;;;;;;;5132989;27;20006;-59
2022/10/27 08:08:50;;;;;;;;;;;;;;;;;;5133010;27;20354;-60
2022/10/27 08:11:15;;;;;;;;;;;;;;;;;;5133098;27;20290;-59
2022/10/27 08:13:40;;;;;;;;;;;;;;;;;;5132369;27;19939;-59
2022/10/27 08:16:05;;;;;;;;;;;;;;;;;;5132857;27;19998;-59
2022/10/27 08:18:30;;;;;;;;;;;;;;;;;;5132786;27;19927;-59
2022/10/27 08:20:56;;;;;;;;;;;;;;;;;;5132888;27;19911;-60
2022/10/27 08:23:23;;;;;;;;;;;;;;;;;;5132493;27;19935;-59
2022/10/27 08:25:48;;;;;;;;;;;;;;;;;;5132517;27;20369;-59
2022/10/27 08:28:13;;;;;;;;;;;;;;;;;;5132356;27;20415;-59
2022/10/27 08:30:38;;;;;;;;;;;;;;;;;;5132105;27;19923;-59
2022/10/27 08:33:03;;;;;;;;;;;;;;;;;;5132640;27;20343;-59
2022/10/27 08:35:30;;;;;;;;;;;;;;;;;;5132673;27;19908;-59
2022/10/27 08:37:55;;;;;;;;;;;;;;;;;;5132450;27;20312;-59
2022/10/27 08:40:20;;;;;;;;;;;;;;;;;;5132247;27;20259;-59
2022/10/27 08:42:45;;;;;;;;;;;;;;;;;;5132317;27;20019;-59
2022/10/27 08:45:10;;;;;;;;;;;;;;;;;;5132358;27;19952;-59
2022/10/27 08:47:35;;;;;;;;;;;;;;;;;;5132323;27;19918;-59
2022/10/27 08:50:00;;;;;;;;;;;;;;;;;;5132212;27;19975;-59
2022/10/27 08:52:25;;;;;;;;;;;;;;;;;;5132447;28;20375;-59
2022/10/27 08:54:50;;;;;;;;;;;;;;;;;;5132464;28;19915;-59
2022/10/27 08:57:15;;;;;;;;;;;;;;;;;;5132528;28;19914;-60
2022/10/27 08:59:41;;;;;;;;;;;;;;;;;;5131716;28;19947;-59
2022/10/27 09:02:06;;;;;;;;;;;;;;;;;;5132010;28;20006;-59
2022/10/27 09:04:31;;;;;;;;;;;;;;;;;;5132432;28;19911;-58
2022/10/27 09:06:56;;;;;;;;;;;;;;;;;;5132118;28;19918;-59
2022/10/27 09:09:21;;;;;;;;;;;;;;;;;;5132225;28;19914;-59
2022/10/27 09:11:46;;;;;;;;;;;;;;;;;;5131781;28;19911;-59
2022/10/27 09:14:11;;;;;;;;;;;;;;;;;;5131891;28;19911;-59
2022/10/27 09:16:36;;;;;;;;;;;;;;;;;;5131995;28;19911;-58
2022/10/27 09:19:01;;;;;;;;;;;;;;;;;;5132091;28;19998;-60
2022/10/27 09:21:26;;;;;;;;;;;;;;;;;;5132268;28;20380;-59
2022/10/27 09:23:52;;;;;;;;;;;;;;;;;;5131789;28;19942;-59
2022/10/27 09:26:17;;;;;;;;;;;;;;;;;;5132063;28;19930;-59
2022/10/27 09:28:42;;;;;;;;;;;;;;;;;;5131863;28;20006;-59
2022/10/27 09:31:07;;;;;;;;;;;;;;;;;;5131520;28;19920;-59
2022/10/27 09:33:32;;;;;;;;;;;;;;;;;;5132101;28;19953;-59
2022/10/27 09:35:57;;;;;;;;;;;;;;;;;;5132110;28;19907;-59
2022/10/27 09:38:22;;;;;;;;;;;;;;;;;;5131942;27;19914;-59
2022/10/27 09:40:47;;;;;;;;;;;;;;;;;;5135784;27;19907;-58
2022/10/27 09:43:12;;;;;;;;;;;;;;;;;;5135919;27;19913;-58
2022/10/27 09:45:39;;;;;;;;;;;;;;;;;;5135599;27;19915;-59
2022/10/27 09:48:04;;;;;;;;;;;;;;;;;;5135440;27;19911;-62
2022/10/27 09:50:35;;;;;;;;;;;;;;;;;;5135623;27;19907;-58
2022/10/27 09:53:00;;;;;;;;;;;;;;;;;;5135674;27;19914;-59
2022/10/27 09:55:25;;;;;;;;;;;;;;;;;;5135838;27;19907;-59
2022/10/27 09:57:50;;;;;;;;;;;;;;;;;;5135393;27;19907;-59
2022/10/27 10:00:15;;;;;;;;;;;;;;;;;;5135443;27;20304;-58
2022/10/27 10:02:40;;;;;;;;;;;;;;;;;;5134860;27;19916;-59
2022/10/27 10:05:06;;;;;;;;;;;;;;;;;;5135612;27;19911;-59
2022/10/27 10:07:31;;;;;;;;;;;;;;;;;;5135651;27;19915;-59
2022/10/27 10:09:56;;;;;;;;;;;;;;;;;;5135182;27;19911;-59
2022/10/27 10:12:21;;;;;;;;;;;;;;;;;;5135030;27;19925;-59
2022/10/27 10:14:46;;;;;;;;;;;;;;;;;;5134879;27;20005;-59
2022/10/27 10:17:11;;;;;;;;;;;;;;;;;;5135231;27;20433;-59
2022/10/27 10:19:37;;;;;;;;;;;;;;;;;;5135147;27;19914;-59
2022/10/27 10:22:02;;;;;;;;;;;;;;;;;;5134763;27;19916;-59
2022/10/27 10:24:27;;;;;;;;;;;;;;;;;;5134974;27;19908;-60
2022/10/27 10:26:52;;;;;;;;;;;;;;;;;;5134864;27;19911;-59
2022/10/27 10:29:21;;;;;;;;;;;;;;;;;;5134776;27;19911;-60
2022/10/27 10:31:46;;;;;;;;;;;;;;;;;;5134316;27;19919;-59
2022/10/27 10:34:11;;;;;;;;;;;;;;;;;;5135053;27;20021;-59
2022/10/27 10:36:36;;;;;;;;;;;;;;;;;;5135117;27;20286;-59
2022/10/27 10:39:01;;;;;;;;;;;;;;;;;;5134625;27;19912;-60
2022/10/27 10:41:26;;;;;;;;;;;;;;;;;;5133794;27;20380;-59
2022/10/27 10:43:51;;;;;;;;;;;;;;;;;;5134533;27;19960;-60
2022/10/27 10:46:17;;;;;;;;;;;;;;;;;;5134580;27;19960;-59
2022/10/27 10:48:45;;;;;;;;;;;;;;;;;;5134189;27;20304;-60
2022/10/27 10:51:10;;;;;;;;;;;;;;;;;;5133966;27;20010;-60
2022/10/27 10:53:37;;;;;;;;;;;;;;;;;;5134488;27;19950;-59
2022/10/27 10:56:02;;;;;;;;;;;;;;;;;;5134140;27;19911;-60
2022/10/27 10:58:27;;;;;;;;;;;;;;;;;;5134062;27;19961;-57
2022/10/27 11:00:52;;;;;;;;;;;;;;;;;;5134028;27;20270;-59
2022/10/27 11:03:17;;;;;;;;;;;;;;;;;;5134158;27;19908;-58
2022/10/27 11:05:42;;;;;;;;;;;;;;;;;;5134066;27;19907;-58
2022/10/27 11:08:07;;;;;;;;;;;;;;;;;;5134123;27;19946;-58
2022/10/27 11:10:33;;;;;;;;;;;;;;;;;;5134115;27;19960;-61
2022/10/27 11:12:58;;;;;;;;;;;;;;;;;;5133812;27;20385;-59
2022/10/27 11:15:23;;;;;;;;;;;;;;;;;;5133769;27;20009;-59
2022/10/27 11:17:48;;;;;;;;;;;;;;;;;;5133870;27;19908;-59
2022/10/27 11:20:13;;;;;;;;;;;;;;;;;;5134118;27;19914;-59
2022/10/27 11:22:38;;;;;;;;;;;;;;;;;;5133509;27;19911;-59
2022/10/27 11:25:03;;;;;;;;;;;;;;;;;;5133671;27;19911;-58
2022/10/27 11:27:28;;;;;;;;;;;;;;;;;;5133831;27;20026;-59
2022/10/27 11:29:53;;;;;;;;;;;;;;;;;;5133491;27;19942;-58
2022/10/27 11:32:18;;;;;;;;;;;;;;;;;;5133380;27;19916;-59
2022/10/27 11:34:43;;;;;;;;;;;;;;;;;;5133799;27;19916;-59
2022/10/27 11:37:09;;;;;;;;;;;;;;;;;;5133638;27;19976;-59
2022/10/27 11:39:34;;;;;;;;;;;;;;;;;;5133563;27;19911;-60
2022/10/27 11:41:59;;;;;;;;;;;;;;;;;;5132736;27;19915;-59
2022/10/27 11:44:24;;;;;;;;;;;;;;;;;;5133380;27;19907;-60
2022/10/27 11:46:49;;;;;;;;;;;;;;;;;;5133270;27;19990;-61
2022/10/27 11:49:14;;;;;;;;;;;;;;;;;;5133386;27;19907;-60
2022/10/27 11:51:39;;;;;;;;;;;;;;;;;;5133396;27;19918;-60
2022/10/27 11:54:04;;;;;;;;;;;;;;;;;;5132944;27;19920;-59
2022/10/27 11:56:29;;;;;;;;;;;;;;;;;;5133307;27;19914;-59
2022/10/27 11:58:54;;;;;;;;;;;;;;;;;;5132912;27;19960;-59
2022/10/27 12:01:19;;;;;;;;;;;;;;;;;;5132600;27;20418;-60
2022/10/27 12:03:44;;;;;;;;;;;;;;;;;;5132054;27;19918;-60
2022/10/27 12:06:10;;;;;;;;;;;;;;;;;;5133354;27;19912;-59
2022/10/27 12:08:35;;;;;;;;;;;;;;;;;;5133264;27;19915;-59
2022/10/27 12:11:00;;;;;;;;;;;;;;;;;;5132527;27;19922;-59
2022/10/27 12:13:25;;;;;;;;;;;;;;;;;;5132724;27;19914;-59
2022/10/27 12:15:50;;;;;;;;;;;;;;;;;;5132796;27;20111;-59
2022/10/27 12:18:15;;;;;;;;;;;;;;;;;;5132882;27;19908;-59
2022/10/27 12:20:40;;;;;;;;;;;;;;;;;;5133041;27;19918;-59
2022/10/27 12:23:05;;;;;;;;;;;;;;;;;;5132512;27;19911;-58
2022/10/27 12:25:30;;;;;;;;;;;;;;;;;;5132912;27;19908;-59
2022/10/27 12:27:57;;;;;;;;;;;;;;;;;;5132518;27;19918;-59
2022/10/27 12:30:22;;;;;;;;;;;;;;;;;;5132353;27;20357;-58
2022/10/27 12:32:47;;;;;;;;;;;;;;;;;;5132354;27;20521;-58
2022/10/27 12:35:12;;;;;;;;;;;;;;;;;;5132714;27;20380;-59
2022/10/27 12:37:37;;;;;;;;;;;;;;;;;;5132695;27;19903;-59
2022/10/27 12:40:02;;;;;;;;;;;;;;;;;;5132321;27;19946;-58
2022/10/27 12:42:27;;;;;;;;;;;;;;;;;;5132465;27;19994;-58
2022/10/27 12:44:52;;;;;;;;;;;;;;;;;;5132324;27;19927;-58
2022/10/27 12:47:17;;;;;;;;;;;;;;;;;;5132534;27;20006;-58
2022/10/27 12:49:42;;;;;;;;;;;;;;;;;;5132272;27;19947;-58
2022/10/27 12:52:08;;;;;;;;;;;;;;;;;;5132095;28;20382;-59
2022/10/27 12:54:33;;;;;;;;;;;;;;;;;;5132575;28;19953;-58
2022/10/27 12:56:58;;;;;;;;;;;;;;;;;;5132445;28;19908;-58
2022/10/27 12:59:23;;;;;;;;;;;;;;;;;;5132144;28;19908;-57
2022/10/27 13:01:48;;;;;;;;;;;;;;;;;;5132131;28;19911;-59
2022/10/27 13:04:13;;;;;;;;;;;;;;;;;;5132168;28;19911;-58
2022/10/27 13:06:38;;;;;;;;;;;;;;;;;;5132171;28;20277;-58
2022/10/27 13:09:03;;;;;;;;;;;;;;;;;;5132037;28;19908;-59
2022/10/27 13:11:28;;;;;;;;;;;;;;;;;;5132018;28;20006;-59
2022/10/27 13:13:53;;;;;;;;;;;;;;;;;;5132422;27;19929;-58
2022/10/27 13:16:18;;;;;;;;;;;;;;;;;;5135754;27;19912;-59
2022/10/27 13:18:43;;;;;;;;;;;;;;;;;;5136221;27;20353;-58
2022/10/27 13:21:09;;;;;;;;;;;;;;;;;;5135778;27;19960;-59
2022/10/27 13:23:34;;;;;;;;;;;;;;;;;;5136136;27;19946;-58
2022/10/27 13:25:59;;;;;;;;;;;;;;;;;;5136052;27;19912;-58
2022/10/27 13:28:24;;;;;;;;;;;;;;;;;;5135940;27;20010;-58
2022/10/27 13:30:49;;;;;;;;;;;;;;;;;;5135656;27;20374;-59
2022/10/27 13:33:14;;;;;;;;;;;;;;;;;;5135659;27;19916;-59
2022/10/27 13:35:39;;;;;;;;;;;;;;;;;;5136119;27;19912;-59
2022/10/27 13:38:04;;;;;;;;;;;;;;;;;;5136121;27;19931;-59
2022/10/27 13:40:29;;;;;;;;;;;;;;;;;;5135912;27;19960;-59
2022/10/27 13:42:54;;;;;;;;;;;;;;;;;;5135329;27;19907;-58
2022/10/27 13:45:19;;;;;;;;;;;;;;;;;;5135651;27;20243;-60
2022/10/27 13:47:45;;;;;;;;;;;;;;;;;;5135888;27;19965;-59
2022/10/27 13:50:10;;;;;;;;;;;;;;;;;;5135469;27;19911;-58
2022/10/27 13:52:35;;;;;;;;;;;;;;;;;;5117108;27;19914;-58
2022/10/27 13:55:01;;;;;;;;;;;;;;;;;;5135623;27;19918;-60
2022/10/27 13:57:26;;;;;;;;;;;;;;;;;;5135907;27;19907;-59
2022/10/27 13:59:51;;;;;;;;;;;;;;;;;;5135206;27;19915;-59
2022/10/27 14:02:16;;;;;;;;;;;;;;;;;;5135030;27;19972;-59
2022/10/27 14:04:41;;;;;;;;;;;;;;;;;;5135487;27;20380;-57
2022/10/27 14:07:06;;;;;;;;;;;;;;;;;;5135151;27;19911;-59
2022/10/27 14:09:31;;;;;;;;;;;;;;;;;;5135423;27;19918;-60
2022/10/27 14:11:56;;;;;;;;;;;;;;;;;;5135219;27;19998;-59
2022/10/27 14:14:21;;;;;;;;;;;;;;;;;;5134838;27;19911;-59
2022/10/27 14:16:46;;;;;;;;;;;;;;;;;;5135061;27;19911;-59
2022/10/27 14:19:11;;;;;;;;;;;;;;;;;;5135044;27;19911;-59
2022/10/27 14:21:37;;;;;;;;;;;;;;;;;;5135009;27;19914;-59
2022/10/27 14:24:02;;;;;;;;;;;;;;;;;;5134665;27;19976;-59
2022/10/27 14:26:27;;;;;;;;;;;;;;;;;;5133580;27;20319;-59
2022/10/27 14:28:52;;;;;;;;;;;;;;;;;;5134594;27;20315;-60
2022/10/27 14:31:18;;;;;;;;;;;;;;;;;;5134752;27;19930;-59
2022/10/27 14:33:43;;;;;;;;;;;;;;;;;;5134506;27;20346;-59
2022/10/27 14:36:09;;;;;;;;;;;;;;;;;;5134657;27;20377;-57
2022/10/27 14:38:34;;;;;;;;;;;;;;;;;;5134969;27;19949;-58
2022/10/27 14:40:59;;;;;;;;;;;;;;;;;;5134669;27;19911;-59
2022/10/27 14:43:24;;;;;;;;;;;;;;;;;;5134260;27;19950;-59
2022/10/27 14:45:49;;;;;;;;;;;;;;;;;;5134375;27;19907;-58
2022/10/27 14:48:14;;;;;;;;;;;;;;;;;;5134433;27;19919;-59
2022/10/27 14:50:39;;;;;;;;;;;;;;;;;;5134553;27;19933;-57
2022/10/27 14:53:04;;;;;;;;;;;;;;;;;;5134273;27;19907;-58
2022/10/27 14:55:30;;;;;;;;;;;;;;;;;;5134480;27;19908;-57
2022/10/27 14:57:55;;;;;;;;;;;;;;;;;;5134304;27;19907;-58
2022/10/27 15:00:20;;;;;;;;;;;;;;;;;;5134184;27;19915;-59
2022/10/27 15:02:45;;;;;;;;;;;;;;;;;;5134400;27;19911;-58
2022/10/27 15:05:10;;;;;;;;;;;;;;;;;;5134367;27;19930;-59
2022/10/27 15:07:35;;;;;;;;;;;;;;;;;;5134207;27;19918;-58
2022/10/27 15:10:00;;;;;;;;;;;;;;;;;;5134272;27;19915;-59
2022/10/27 15:12:25;;;;;;;;;;;;;;;;;;5133650;27;19960;-60
2022/10/27 15:14:50;;;;;;;;;;;;;;;;;;5134006;27;19951;-59
2022/10/27 15:17:16;;;;;;;;;;;;;;;;;;5133899;27;20374;-58
2022/10/27 15:19:41;;;;;;;;;;;;;;;;;;5133973;27;19907;-59
2022/10/27 15:22:06;;;;;;;;;;;;;;;;;;5133409;27;19952;-56
2022/10/27 15:24:31;;;;;;;;;;;;;;;;;;5133807;27;20615;-59
2022/10/27 15:26:56;;;;;;;;;;;;;;;;;;5133802;27;19911;-58
2022/10/27 15:29:21;;;;;;;;;;;;;;;;;;5133275;27;19912;-61
2022/10/27 15:31:46;;;;;;;;;;;;;;;;;;5133462;27;20572;-59
2022/10/27 15:34:11;;;;;;;;;;;;;;;;;;5133240;27;19984;-59
2022/10/27 15:36:36;;;;;;;;;;;;;;;;;;5133113;27;19907;-59
2022/10/27 15:39:01;;;;;;;;;;;;;;;;;;5133420;27;19916;-58
2022/10/27 15:41:26;;;;;;;;;;;;;;;;;;5133222;27;19912;-59
2022/10/27 15:43:52;;;;;;;;;;;;;;;;;;5132884;27;19987;-59
2022/10/27 15:46:17;;;;;;;;;;;;;;;;;;5133450;27;19907;-58
2022/10/27 15:48:42;;;;;;;;;;;;;;;;;;5133263;27;19958;-58
2022/10/27 15:51:07;;;;;;;;;;;;;;;;;;5133470;27;19915;-58
2022/10/27 15:53:32;;;;;;;;;;;;;;;;;;5133153;27;20382;-59
2022/10/27 15:55:57;;;;;;;;;;;;;;;;;;5133395;27;19907;-59
2022/10/27 15:58:22;;;;;;;;;;;;;;;;;;5132836;27;19932;-58
2022/10/27 16:00:47;;;;;;;;;;;;;;;;;;5132904;27;19964;-59
2022/10/27 16:03:12;;;;;;;;;;;;;;;;;;5132651;27;19911;-57
2022/10/27 16:05:37;;;;;;;;;;;;;;;;;;5132905;27;19907;-57
2022/10/27 16:08:03;;;;;;;;;;;;;;;;;;5132791;27;19946;-60
2022/10/27 16:10:28;;;;;;;;;;;;;;;;;;5132654;27;20326;-57
2022/10/27 16:12:53;;;;;;;;;;;;;;;;;;5132047;27;20377;-57
2022/10/27 16:15:19;;;;;;;;;;;;;;;;;;5132370;27;19958;-59
2022/10/27 16:17:45;;;;;;;;;;;;;;;;;;5132788;27;20433;-57
2022/10/27 16:20:10;;;;;;;;;;;;;;;;;;5132865;27;19908;-58
2022/10/27 16:22:35;;;;;;;;;;;;;;;;;;5132525;27;19914;-58
2022/10/27 16:25:01;;;;;;;;;;;;;;;;;;5132691;27;20376;-58
2022/10/27 16:27:26;;;;;;;;;;;;;;;;;;5132575;27;19915;-58
2022/10/27 16:29:51;;;;;;;;;;;;;;;;;;5132512;27;19918;-59